Minehead, United Kingdom
Current Conditions -  °F | °C
As of 4:50 PM on Sunday 21 Dec 2014 (Local Time) from EGDX Reporting Station
Broken Clouds Broken Clouds  
Wind Chill: 52°   Ceiling: 900
Heat Index: 52°   Visibility: 6mi
Dew Point: 50°   Wind: 21mph
Humidity: 94%   Direction: 250°WSW
Pressure: 30.21"   Gusts: NA
Location:  51.21°N, 3.48°W
Report Text: EGDX 211650Z AUTO 25018KT 9999 BKN009/// 11/10 Q1023 RERA
Loading
Personal Weather Stations






























Interactive Weather Map New forecast layout! Learn more

10-Day Weather Forecast

Advertisements
Track Severe Weather on mobile